メインページ
METAR-TAF:

METAR-TAF

空港 :

キング・アブドゥルアズィーズ国際空港

ジッダ, サウジアラビア

緯度: 21-42N, 経度: 039-11E, 海抜: 15m

現時点の気象観測

当レポートは37分前の23:00(UTC)に作成
北西の風 6kt
気温 31°C
湿度 63%
気圧 1003 hPa
視程10km以上
1,500メートル以下は雲なし、積乱雲なし

METAR: OEJN 162300Z 32006KT CAVOK 31/23 Q1003 NOSIG

時間: 02:37 (23:37 UTC)

予報

当レポートは6時間37分前の17:00(UTC)に作成
予報は16日の 18時(UTC)から 17日の 24時(UTC)まで有効
の風 6kt
視程10km以上
1,500メートル以下は雲なし、積乱雲なし
16日の 22時(UTC)から 16日の 24時(UTC)まで徐々に
変向風 3kt
17日の 06時(UTC)から 17日の 08時(UTC)まで徐々に
西の風 13kt

TAF: OEJN 161700Z 1618/1724 01006KT CAVOK BECMG 1622/1624 VRB03KT BECMG 1706/1708 28013KT

4,000以上の空港の気象観測と天気予報(METAR報とTAF報)

利用可能な観測所は地図上に黄色い丸と赤い丸で示す。

丸の上にカーソルを重ねると観測所名を参照できる。

次にクリックすると気象観測と天気予報を参照できる。

マップの切り替え:黒色「×」印の緑ボタンをクリックして拡大、「-」印の緑ボタンをクリックして縮小、緑色の三角印をクリックして隣りの地図に切り替え


METAR-TAF: